»·PEaware :: FFT394 KDEN-KJAC

FFT394 :: KDEN-KJAC

FLIGHT INFORMATION

Flight Status: Arrived
Operator:
Frontier Airlines
More flights by this operator :: More flights under this callsign
Pilot: Anonymous 10623 (10623)
Aircraft: Airbus A320neo
(A20N)
More flights by this aircraft type
Origin: KDEN Denver Intl
United States
Destination: KJAC Jackson Hole
United States
More flights between these airports :: More routes between these airports
Route: DDRTH1 DDRTH DNW
File this flight plan on PilotEdge
Remarks: RMK / SIMBRIEF
Altitude:
(Current/Filed)
36,000ft
Speed:
(Current/Filed)
446kts
Departed: 10-Dec-21 06:14 PM
Arrived: 10-Dec-21 07:35 PM
Distance/Time
Traveled:
352nm/1:21
Distance/Time
To Go:
Arrived

Flight Plot

Page will automatically refresh every two minutes.

Flight plan parsing failed; only flown route is shown


Map Options




Map Legend


Flown Route
Filed Route
Departure Airport
Arrival Airport
Navaid (VOR, NDB)
Fix

Horizontal Profiles

Position Reports

Time Latitude Longitude Heading Altitude Ground
Speed
10-Dec-21 17:42 39.853411 -104.671581 1 5384ft 0kts
10-Dec-21 17:43 39.853411 -104.671581 1 5384ft 0kts
10-Dec-21 17:44 39.853411 -104.671581 1 5384ft 0kts
10-Dec-21 17:45 39.853411 -104.671581 1 5384ft 0kts
10-Dec-21 17:46 39.853411 -104.671581 1 5384ft 0kts
10-Dec-21 17:47 39.853411 -104.671581 1 5384ft 0kts
10-Dec-21 17:48 39.853411 -104.671581 1 5384ft 0kts
10-Dec-21 17:49 39.853411 -104.671581 1 5384ft 0kts
10-Dec-21 17:50 39.853411 -104.671581 1 5384ft 0kts
10-Dec-21 17:51 39.853411 -104.671581 1 5384ft 0kts
10-Dec-21 17:52 39.853411 -104.671581 1 5384ft 0kts
10-Dec-21 17:53 39.853411 -104.671581 1 5384ft 0kts
10-Dec-21 17:54 39.853411 -104.671581 1 5384ft 0kts
10-Dec-21 17:56 39.853411 -104.671581 1 5384ft 0kts
10-Dec-21 17:57 39.853411 -104.671581 1 5384ft 0kts
10-Dec-21 17:58 39.853115 -104.671588 1 5384ft 3kts
10-Dec-21 17:59 39.852750 -104.672014 86 5384ft 0kts
10-Dec-21 18:00 39.852750 -104.672014 86 5384ft 0kts
10-Dec-21 18:01 39.852750 -104.672014 86 5384ft 0kts
10-Dec-21 18:02 39.852750 -104.672014 86 5384ft 0kts
10-Dec-21 18:03 39.852750 -104.672014 86 5384ft 0kts
10-Dec-21 18:04 39.852750 -104.672014 86 5384ft 0kts
10-Dec-21 18:05 39.852810 -104.670427 81 5384ft 10kts
10-Dec-21 18:06 39.852953 -104.665860 78 5384ft 12kts
10-Dec-21 18:07 39.853041 -104.665046 85 5384ft 0kts
10-Dec-21 18:08 39.853003 -104.664354 97 5384ft 12kts
10-Dec-21 18:09 39.855592 -104.662389 2 5396ft 18kts
10-Dec-21 18:10 39.860657 -104.662326 19 5387ft 7kts
10-Dec-21 18:11 39.861015 -104.661510 90 5386ft 0kts
10-Dec-21 18:12 39.861015 -104.661510 90 5386ft 0kts
10-Dec-21 18:13 39.861014 -104.660821 90 5386ft 9kts
10-Dec-21 18:14 39.856543 -104.660212 180 5399ft 78kts
10-Dec-21 18:15 39.816705 -104.659864 186 6360ft 164kts
10-Dec-21 18:16 39.768630 -104.660361 191 7968ft 189kts
10-Dec-21 18:17 39.706121 -104.662954 187 9464ft 253kts
10-Dec-21 18:18 39.628862 -104.664794 188 11397ft 304kts
10-Dec-21 18:19 39.542052 -104.664267 189 14123ft 316kts
10-Dec-21 18:19 39.467136 -104.660903 191 16017ft 327kts
10-Dec-21 18:21 39.357245 -104.654218 192 18336ft 351kts
10-Dec-21 18:22 39.277278 -104.686170 242 20464ft 284kts
10-Dec-21 18:23 39.298145 -104.785504 302 22044ft 370kts
10-Dec-21 18:23 39.392975 -104.816595 347 22893ft 488kts
10-Dec-21 18:24 39.526206 -104.821877 334 23897ft 471kts
10-Dec-21 18:26 39.678560 -104.851646 333 25154ft 480kts
10-Dec-21 18:27 39.811621 -104.877805 332 26290ft 486kts
10-Dec-21 18:27 39.924020 -104.899961 332 27219ft 492kts
10-Dec-21 18:28 40.060390 -104.926928 332 28260ft 499kts
10-Dec-21 18:29 40.198234 -104.954299 332 29255ft 505kts
10-Dec-21 18:31 40.361354 -104.986840 332 30292ft 513kts
10-Dec-21 18:31 40.479818 -105.010618 332 30874ft 520kts
10-Dec-21 18:32 40.623237 -105.039378 332 31769ft 523kts
10-Dec-21 18:33 40.762132 -105.077683 312 32724ft 468kts
10-Dec-21 18:34 40.839344 -105.183432 282 33375ft 378kts
10-Dec-21 18:35 40.902659 -105.298140 286 34269ft 391kts
10-Dec-21 18:36 40.970267 -105.411339 287 34842ft 391kts
10-Dec-21 18:37 41.037446 -105.524530 286 35128ft 392kts
10-Dec-21 18:38 41.104476 -105.637854 286 35533ft 389kts
10-Dec-21 18:39 41.171003 -105.750765 286 35894ft 388kts
10-Dec-21 18:40 41.237444 -105.864011 286 35888ft 387kts
10-Dec-21 18:41 41.303527 -105.977024 286 35886ft 387kts
10-Dec-21 18:42 41.368837 -106.089306 310 35039ft 392kts
10-Dec-21 18:43 41.435680 -106.204291 310 34768ft 392kts
10-Dec-21 18:44 41.503895 -106.318006 312 34771ft 392kts
10-Dec-21 18:45 41.566000 -106.417872 312 34771ft 391kts
10-Dec-21 18:46 41.634907 -106.529818 312 34780ft 385kts
10-Dec-21 18:47 41.703221 -106.641268 312 34775ft 388kts
10-Dec-21 18:48 41.771302 -106.752797 312 34774ft 386kts
10-Dec-21 18:49 41.839178 -106.864389 312 34769ft 384kts
10-Dec-21 18:50 41.906327 -106.975193 312 34769ft 383kts
10-Dec-21 18:51 41.973341 -107.086192 312 34787ft 380kts
10-Dec-21 18:52 42.039780 -107.196633 312 34798ft 380kts
10-Dec-21 18:53 42.106018 -107.307158 312 34793ft 377kts
10-Dec-21 18:54 42.171519 -107.416854 312 34791ft 374kts
10-Dec-21 18:55 42.236476 -107.526032 312 34792ft 372kts
10-Dec-21 18:56 42.301057 -107.634977 312 34792ft 370kts
10-Dec-21 18:57 42.365353 -107.743829 312 34813ft 372kts
10-Dec-21 18:58 42.430409 -107.854365 312 34859ft 376kts
10-Dec-21 18:59 42.495262 -107.965003 312 34872ft 375kts
10-Dec-21 19:00 42.559859 -108.075607 312 34863ft 372kts
10-Dec-21 19:01 42.623727 -108.185352 312 34855ft 369kts
10-Dec-21 19:02 42.687224 -108.294851 312 34947ft 366kts
10-Dec-21 19:03 42.749978 -108.403487 312 34957ft 366kts
10-Dec-21 19:04 42.812729 -108.512508 312 34957ft 364kts
10-Dec-21 19:05 42.874698 -108.620617 312 34390ft 356kts
10-Dec-21 19:06 42.935460 -108.726915 312 31415ft 358kts
10-Dec-21 19:07 42.997068 -108.835107 311 28238ft 357kts
10-Dec-21 19:08 43.057657 -108.941928 310 25355ft 352kts
10-Dec-21 19:09 43.117428 -109.047665 309 22499ft 352kts
10-Dec-21 19:10 43.176001 -109.151692 308 20117ft 340kts
10-Dec-21 19:11 43.232645 -109.252606 308 17714ft 327kts
10-Dec-21 19:12 43.286964 -109.349694 307 15566ft 311kts
10-Dec-21 19:13 43.339911 -109.444684 306 15401ft 316kts
10-Dec-21 19:14 43.393015 -109.540248 306 15411ft 312kts
10-Dec-21 19:15 43.445679 -109.635318 306 15394ft 312kts
10-Dec-21 19:16 43.497799 -109.729698 306 15420ft 311kts
10-Dec-21 19:17 43.550156 -109.824814 306 15408ft 312kts
10-Dec-21 19:18 43.598846 -109.913491 306 15415ft 272kts
10-Dec-21 19:19 43.644377 -109.996774 306 15410ft 273kts
10-Dec-21 19:20 43.689747 -110.079966 305 15399ft 265kts
10-Dec-21 19:21 43.733996 -110.161276 306 15395ft 272kts
10-Dec-21 19:22 43.778235 -110.242712 305 15402ft 244kts
10-Dec-21 19:23 43.813101 -110.307121 304 15415ft 201kts
10-Dec-21 19:24 43.834302 -110.378064 284 14691ft 202kts
10-Dec-21 19:25 43.845732 -110.453796 282 13068ft 198kts
10-Dec-21 19:26 43.856968 -110.530376 280 11155ft 205kts
10-Dec-21 19:27 43.857753 -110.603727 243 10597ft 190kts
10-Dec-21 19:28 43.813750 -110.636798 203 9862ft 183kts
10-Dec-21 19:29 43.767495 -110.659572 203 9597ft 183kts
10-Dec-21 19:30 43.721634 -110.681966 203 8658ft 151kts
10-Dec-21 19:31 43.684022 -110.700930 198 7891ft 142kts
10-Dec-21 19:32 43.646669 -110.718312 202 7103ft 140kts
10-Dec-21 19:33 43.610179 -110.736338 198 6417ft 125kts
10-Dec-21 19:34 43.603830 -110.738183 90 6413ft 0kts
10-Dec-21 19:35 43.603242 -110.737955 133 6413ft 4kts
10-Dec-21 19:36 43.603091 -110.737288 108 6413ft 0kts
10-Dec-21 19:37 43.603091 -110.737288 108 6413ft 0kts

Navigation Log

Ident Type
Flight plan parsing failed, navigation log unavailable